createdAt,value
2022-10-13T00:00:49.020Z,4.85
2022-10-13T00:03:16.640Z,4.32
2022-10-13T00:05:54.616Z,4.35
2022-10-13T00:08:22.596Z,5.10
2022-10-13T00:10:57.549Z,4.68
2022-10-13T00:13:24.818Z,4.88
2022-10-13T00:15:58.652Z,4.57
2022-10-13T00:18:25.872Z,4.35
2022-10-13T00:20:53.008Z,4.57
2022-10-13T00:23:26.582Z,4.88
2022-10-13T00:26:16.492Z,4.65
2022-10-13T00:28:52.802Z,4.38
2022-10-13T00:31:20.215Z,4.13
2022-10-13T00:33:47.478Z,4.68
2022-10-13T00:36:21.756Z,5.13
2022-10-13T00:38:49.153Z,4.20
2022-10-13T00:41:16.232Z,5.28
2022-10-13T00:44:08.639Z,4.38
2022-10-13T00:46:37.301Z,4.05
2022-10-13T00:49:20.695Z,4.65
2022-10-13T00:51:49.675Z,4.85
2022-10-13T00:54:18.799Z,4.80
2022-10-13T00:56:52.670Z,4.70
2022-10-13T00:59:29.508Z,5.10
2022-10-13T01:02:04.679Z,4.80
2022-10-13T01:04:33.872Z,5.65
2022-10-13T01:07:01.127Z,5.35
2022-10-13T01:09:42.565Z,5.18
2022-10-13T01:12:21.787Z,5.85
2022-10-13T01:15:02.609Z,5.28
2022-10-13T01:17:45.078Z,5.47
2022-10-13T01:23:34.575Z,6.32
2022-10-13T01:29:51.555Z,5.32
2022-10-13T01:32:31.508Z,6.93
2022-10-13T01:35:11.580Z,7.10
2022-10-13T01:37:51.508Z,6.47
2022-10-13T01:40:31.575Z,5.97
2022-10-13T01:43:09.510Z,7.30
2022-10-13T01:45:39.330Z,6.38
2022-10-13T01:48:06.733Z,7.38
2022-10-13T01:50:41.577Z,6.43
2022-10-13T01:53:16.503Z,6.65
2022-10-13T01:55:50.734Z,7.68
2022-10-13T01:58:24.543Z,6.43
2022-10-13T02:00:59.231Z,7.65
2022-10-13T02:06:47.438Z,6.15
2022-10-13T02:09:21.525Z,6.60
2022-10-13T02:12:00.757Z,7.18
2022-10-13T02:14:47.656Z,7.38
2022-10-13T02:17:22.607Z,7.07
2022-10-13T02:19:56.513Z,6.38
2022-10-13T02:22:33.612Z,5.95
2022-10-13T02:25:07.551Z,6.32
2022-10-13T02:27:41.737Z,6.70
2022-10-13T02:30:30.518Z,6.95
2022-10-13T02:33:04.594Z,6.80
2022-10-13T02:35:39.490Z,6.72
2022-10-13T02:38:06.891Z,5.97
2022-10-13T02:40:40.547Z,6.25
2022-10-13T02:43:07.752Z,7.20
2022-10-13T02:45:34.916Z,7.55
2022-10-13T02:48:08.810Z,7.28
2022-10-13T02:50:36.146Z,6.72
2022-10-13T02:53:18.711Z,7.50
2022-10-13T02:55:48.377Z,6.63
2022-10-13T02:58:15.669Z,7.43
2022-10-13T03:00:49.866Z,7.65
2022-10-13T03:03:17.158Z,7.22
2022-10-13T03:05:44.715Z,7.25
2022-10-13T03:10:45.924Z,7.00
2022-10-13T03:13:19.620Z,6.93
2022-10-13T03:15:47.627Z,7.60
2022-10-13T03:18:15.142Z,7.32
2022-10-13T03:20:48.709Z,8.75
2022-10-13T03:23:16.022Z,8.25
2022-10-13T03:25:56.627Z,8.13
2022-10-13T03:28:37.580Z,8.40
2022-10-13T03:31:12.685Z,7.55
2022-10-13T03:33:47.515Z,9.00
2022-10-13T03:36:21.763Z,9.43
2022-10-13T03:38:49.021Z,8.43
2022-10-13T03:41:17.605Z,9.55
2022-10-13T03:43:51.635Z,9.88
2022-10-13T03:46:25.523Z,8.73
2022-10-13T03:48:59.734Z,9.02
2022-10-13T03:51:26.916Z,8.10
2022-10-13T03:53:54.275Z,8.30
2022-10-13T03:56:32.614Z,10.60
2022-10-13T03:59:00.619Z,8.48
2022-10-13T04:01:35.770Z,8.27
2022-10-13T04:04:03.369Z,9.48
2022-10-13T04:06:31.564Z,8.93
2022-10-13T04:09:05.641Z,8.70
2022-10-13T04:11:32.966Z,8.88
2022-10-13T04:14:00.118Z,7.75
2022-10-13T04:16:35.789Z,7.93
2022-10-13T04:19:05.283Z,10.00
2022-10-13T04:21:33.606Z,9.23
2022-10-13T04:24:07.698Z,9.13
2022-10-13T04:26:46.666Z,9.00
2022-10-13T04:29:20.651Z,7.65
2022-10-13T04:31:47.846Z,8.38
2022-10-13T04:34:14.947Z,9.40
2022-10-13T04:36:48.649Z,8.95
2022-10-13T04:39:15.855Z,8.75
2022-10-13T04:41:42.942Z,8.63
2022-10-13T04:44:16.762Z,9.60
2022-10-13T04:46:43.939Z,9.40
2022-10-13T04:49:11.311Z,8.80
2022-10-13T04:51:44.616Z,7.88
2022-10-13T04:54:11.775Z,8.73
2022-10-13T04:56:45.735Z,8.95
2022-10-13T04:59:12.945Z,9.05
2022-10-13T05:01:40.524Z,7.53
2022-10-13T05:07:05.190Z,8.02
2022-10-13T05:09:36.942Z,9.20
2022-10-13T05:12:04.266Z,9.23
2022-10-13T05:14:33.323Z,9.27
2022-10-13T05:17:06.629Z,9.18
2022-10-13T05:19:33.812Z,8.95
2022-10-13T05:22:07.674Z,8.75
2022-10-13T05:24:37.705Z,9.18
2022-10-13T05:27:16.713Z,8.90
2022-10-13T05:29:50.873Z,8.73
2022-10-13T05:32:24.691Z,7.85
2022-10-13T05:34:51.876Z,7.60
2022-10-13T05:37:19.331Z,7.93
2022-10-13T05:39:52.732Z,8.60
2022-10-13T05:42:20.255Z,7.53
2022-10-13T05:44:54.743Z,9.00
2022-10-13T05:47:26.783Z,7.82
2022-10-13T05:49:53.865Z,8.90
2022-10-13T05:52:27.863Z,8.18
2022-10-13T05:54:57.274Z,7.28
2022-10-13T05:57:35.745Z,7.97
2022-10-13T06:00:05.195Z,7.47
2022-10-13T06:02:35.101Z,7.72
2022-10-13T06:05:10.790Z,7.93
2022-10-13T06:07:37.995Z,7.78
2022-10-13T06:10:11.774Z,6.80
2022-10-13T06:12:39.156Z,8.70
2022-10-13T06:15:06.455Z,7.65
2022-10-13T06:17:42.692Z,7.43
2022-10-13T06:20:10.228Z,7.07
2022-10-13T06:25:11.798Z,6.25
2022-10-13T06:27:54.711Z,6.38
2022-10-13T06:30:28.924Z,7.45
2022-10-13T06:32:56.243Z,8.20
2022-10-13T06:35:23.946Z,7.43
2022-10-13T06:40:27.014Z,7.43
2022-10-13T06:43:00.775Z,7.53
2022-10-13T06:45:27.940Z,6.82
2022-10-13T06:47:55.277Z,6.22
2022-10-13T06:50:29.677Z,6.65
2022-10-13T06:52:56.998Z,7.53
2022-10-13T06:55:30.881Z,7.57
2022-10-13T06:57:58.067Z,7.78
2022-10-13T07:00:25.223Z,7.90
2022-10-13T07:02:59.767Z,7.75
2022-10-13T07:05:26.949Z,6.30
2022-10-13T07:08:00.951Z,8.02
2022-10-13T07:10:28.319Z,14.52
2022-10-13T07:12:55.487Z,7.00
2022-10-13T07:15:31.917Z,9.10
2022-10-13T07:17:59.174Z,6.43
2022-10-13T07:20:26.532Z,6.28
2022-10-13T07:23:00.817Z,6.55
2022-10-13T07:25:28.104Z,6.30
2022-10-13T07:28:07.823Z,6.32
2022-10-13T07:30:35.088Z,6.47
2022-10-13T07:33:02.896Z,6.35
2022-10-13T07:35:36.785Z,6.00
2022-10-13T07:38:04.074Z,6.45
2022-10-13T07:40:31.180Z,5.82
2022-10-13T07:43:04.876Z,6.03
2022-10-13T07:45:32.225Z,6.13
2022-10-13T07:47:59.383Z,6.20
2022-10-13T07:50:32.774Z,5.60
2022-10-13T07:53:00.015Z,5.63
2022-10-13T07:55:33.757Z,6.43
2022-10-13T07:58:04.688Z,5.97
2022-10-13T08:00:31.910Z,5.75
2022-10-13T08:03:05.829Z,5.65
2022-10-13T08:05:33.009Z,5.95
2022-10-13T08:08:00.106Z,5.50
2022-10-13T08:10:35.710Z,5.57
2022-10-13T08:13:02.992Z,5.40
2022-10-13T08:15:36.810Z,6.10
2022-10-13T08:18:03.984Z,5.75
2022-10-13T08:20:43.391Z,4.93
2022-10-13T08:23:11.097Z,5.60
2022-10-13T08:25:45.838Z,5.20
2022-10-13T08:28:22.791Z,4.82
2022-10-13T08:31:00.855Z,4.63
2022-10-13T08:33:28.120Z,5.25
2022-10-13T08:35:55.238Z,4.75
2022-10-13T08:38:28.733Z,5.00
2022-10-13T08:40:55.933Z,5.95
2022-10-13T08:43:30.850Z,5.20
2022-10-13T08:46:00.345Z,4.95
2022-10-13T08:51:31.393Z,4.63
2022-10-13T08:54:05.663Z,5.60
2022-10-13T08:56:34.583Z,4.88
2022-10-13T08:59:03.329Z,4.32
2022-10-13T09:01:42.941Z,4.93
2022-10-13T09:04:10.187Z,5.53
2022-10-13T09:06:40.345Z,4.82
2022-10-13T09:09:22.019Z,5.72
2022-10-13T09:11:50.435Z,4.30
2022-10-13T09:14:37.891Z,4.88
2022-10-13T09:19:48.888Z,4.50
2022-10-13T09:22:27.368Z,4.80
2022-10-13T09:25:16.813Z,4.82
2022-10-13T09:27:53.780Z,4.65
2022-10-13T09:30:33.738Z,4.22
2022-10-13T09:33:23.642Z,4.47
2022-10-13T09:36:17.749Z,4.03
2022-10-13T09:38:46.326Z,4.07
2022-10-13T09:41:16.444Z,4.53
2022-10-13T09:43:52.715Z,4.88
2022-10-13T09:46:19.827Z,4.88
2022-10-13T09:48:56.758Z,4.35
2022-10-13T09:51:35.682Z,3.92
2022-10-13T09:54:09.772Z,4.30
2022-10-13T09:56:44.660Z,4.10
2022-10-13T09:59:28.778Z,4.00
2022-10-13T10:01:56.975Z,3.72
2022-10-13T10:04:32.758Z,4.50
2022-10-13T10:07:00.007Z,4.47
2022-10-13T10:09:54.718Z,3.75
2022-10-13T10:12:27.727Z,4.13
2022-10-13T10:15:01.868Z,3.63
2022-10-13T10:17:33.985Z,4.57
2022-10-13T10:20:26.880Z,3.90
2022-10-13T10:23:01.244Z,4.00
2022-10-13T10:25:45.808Z,4.03
2022-10-13T10:28:44.749Z,4.30
2022-10-13T10:31:30.792Z,4.32
2022-10-13T10:34:03.939Z,4.40
2022-10-13T10:36:56.752Z,3.80
2022-10-13T10:39:39.239Z,4.18
2022-10-13T10:42:24.760Z,4.47
2022-10-13T10:44:53.888Z,4.10
2022-10-13T10:47:39.899Z,4.38
2022-10-13T10:50:08.103Z,3.88
2022-10-13T10:52:53.997Z,4.28
2022-10-13T10:55:23.869Z,3.83
2022-10-13T10:58:06.804Z,3.45
2022-10-13T11:00:38.137Z,4.05
2022-10-13T11:03:39.845Z,3.85
2022-10-13T11:06:28.847Z,3.97
2022-10-13T11:08:56.128Z,4.22
2022-10-13T11:11:26.579Z,3.40
2022-10-13T11:14:00.771Z,4.05
2022-10-13T11:16:36.667Z,4.30
2022-10-13T11:19:16.918Z,3.75
2022-10-13T11:21:53.426Z,4.15
2022-10-13T11:24:55.914Z,3.60
2022-10-13T11:27:49.685Z,4.20
2022-10-13T11:30:41.980Z,4.65
2022-10-13T11:33:27.985Z,4.00
2022-10-13T11:36:01.924Z,3.60
2022-10-13T11:38:35.721Z,4.38
2022-10-13T11:41:21.908Z,4.28
2022-10-13T11:44:04.495Z,4.28
2022-10-13T11:46:56.785Z,4.18
2022-10-13T11:49:30.791Z,4.03
2022-10-13T11:52:07.910Z,3.47
2022-10-13T11:54:37.789Z,3.58
2022-10-13T11:57:24.853Z,3.97
2022-10-13T12:00:01.691Z,4.13
2022-10-13T12:02:29.493Z,3.65
2022-10-13T12:05:13.727Z,4.30
2022-10-13T12:07:43.096Z,3.90
2022-10-13T12:10:24.708Z,3.63
2022-10-13T12:12:52.179Z,3.72
2022-10-13T12:15:44.762Z,3.47
2022-10-13T12:18:27.187Z,4.00
2022-10-13T12:21:04.758Z,4.28
2022-10-13T12:23:33.119Z,4.30
2022-10-13T12:26:00.666Z,5.03
2022-10-13T12:31:02.035Z,5.22
2022-10-13T12:33:37.820Z,5.00
2022-10-13T12:36:21.852Z,4.40
2022-10-13T12:38:58.919Z,3.88
2022-10-13T12:41:46.257Z,4.45
2022-10-13T12:44:30.840Z,4.47
2022-10-13T12:46:59.262Z,4.65
2022-10-13T12:49:27.654Z,4.85
2022-10-13T12:52:03.904Z,4.53
2022-10-13T12:54:35.580Z,4.18
2022-10-13T12:57:24.824Z,4.97
2022-10-13T12:59:52.090Z,5.20
2022-10-13T13:02:33.078Z,5.10
2022-10-13T13:05:00.327Z,5.47
2022-10-13T13:07:37.799Z,6.32
2022-10-13T13:10:07.890Z,5.78
2022-10-13T13:12:42.895Z,5.50
2022-10-13T13:15:22.514Z,6.20
2022-10-13T13:17:58.950Z,6.07
2022-10-13T13:20:33.463Z,5.72
2022-10-13T13:23:07.071Z,5.60
2022-10-13T13:25:34.363Z,5.63
2022-10-13T13:28:24.900Z,4.88
2022-10-13T13:30:52.174Z,4.82
2022-10-13T13:33:19.268Z,5.13
2022-10-13T13:35:55.802Z,6.35
2022-10-13T13:38:23.038Z,5.95
2022-10-13T13:41:00.144Z,5.47
2022-10-13T13:43:30.381Z,6.03
2022-10-13T13:46:03.996Z,4.93
2022-10-13T13:48:31.170Z,5.38
2022-10-13T13:50:58.293Z,5.47
2022-10-13T13:53:31.823Z,5.10
2022-10-13T13:55:59.002Z,6.93
2022-10-13T13:58:32.852Z,7.60
2022-10-13T14:01:00.516Z,6.60
2022-10-13T14:03:27.837Z,7.30
2022-10-13T14:06:01.830Z,6.20
2022-10-13T14:08:32.686Z,6.47
2022-10-13T14:11:07.001Z,6.47
2022-10-13T14:13:34.518Z,5.35
2022-10-13T14:16:02.065Z,5.38
2022-10-13T14:18:35.837Z,5.18
2022-10-13T14:21:07.142Z,5.30
2022-10-13T14:23:40.867Z,4.63
2022-10-13T14:26:09.567Z,5.20
2022-10-13T14:28:50.050Z,13.02
2022-10-13T14:31:17.809Z,8.07
2022-10-13T14:33:44.923Z,7.35
2022-10-13T14:36:18.986Z,5.88
2022-10-13T14:38:46.220Z,9.55
2022-10-13T14:41:13.391Z,6.80
2022-10-13T14:43:46.856Z,6.20
2022-10-13T14:46:14.161Z,5.22
2022-10-13T14:48:47.972Z,5.32
2022-10-13T15:44:04.993Z,6.25
2022-10-13T15:46:32.095Z,6.35
2022-10-13T15:48:59.980Z,5.75
2022-10-13T15:51:33.855Z,5.68
2022-10-13T15:54:01.323Z,5.90
2022-10-13T15:56:34.855Z,5.25
2022-10-13T15:59:01.970Z,6.85
2022-10-13T16:01:29.199Z,9.98
2022-10-13T16:04:02.983Z,8.30
2022-10-13T16:06:30.300Z,8.55
2022-10-13T16:08:57.394Z,9.80
2022-10-13T16:11:30.968Z,6.93
2022-10-13T16:14:04.779Z,5.15
2022-10-13T16:16:38.944Z,6.15
2022-10-13T16:19:06.122Z,6.75
2022-10-13T16:21:33.216Z,5.68
2022-10-13T16:24:06.924Z,5.88
2022-10-13T16:26:34.237Z,6.15
2022-10-13T16:29:01.373Z,5.28
2022-10-13T16:31:35.184Z,5.45
2022-10-13T16:34:02.364Z,5.20
2022-10-13T16:36:29.463Z,5.85
2022-10-13T16:39:03.017Z,4.95
2022-10-13T16:41:30.195Z,5.35
2022-10-13T16:44:10.920Z,5.50
2022-10-13T16:46:38.111Z,6.05
2022-10-13T16:49:05.268Z,5.43
2022-10-13T16:51:39.094Z,4.85
2022-10-13T16:54:06.803Z,20.20
2022-10-13T16:56:34.307Z,9.20
2022-10-13T16:59:09.901Z,6.85
2022-10-13T17:01:37.147Z,6.38
2022-10-13T17:04:04.807Z,5.50
2022-10-13T17:09:12.831Z,6.18
2022-10-13T17:11:46.961Z,6.22
2022-10-13T17:14:14.232Z,6.25
2022-10-13T17:16:47.925Z,6.20
2022-10-13T17:19:15.090Z,5.85
2022-10-13T17:21:42.173Z,5.28
2022-10-13T17:24:15.983Z,6.43
2022-10-13T17:26:43.212Z,6.40
2022-10-13T17:29:10.649Z,6.80
2022-10-13T17:31:44.946Z,10.93
2022-10-13T17:34:12.237Z,5.60
2022-10-13T17:36:39.348Z,6.68
2022-10-13T17:39:14.511Z,6.40
2022-10-13T17:41:42.070Z,6.35
2022-10-13T17:46:54.425Z,6.47
2022-10-13T17:49:21.523Z,6.32
2022-10-13T17:51:57.928Z,6.53
2022-10-13T17:54:25.191Z,7.63
2022-10-13T17:56:58.958Z,6.65
2022-10-13T17:59:26.186Z,10.57
2022-10-13T18:01:53.347Z,11.15
2022-10-13T18:04:28.971Z,9.00
2022-10-13T18:06:56.264Z,9.00
2022-10-13T18:09:31.218Z,8.07
2022-10-13T18:11:58.707Z,16.42
2022-10-13T18:14:25.938Z,8.40
2022-10-13T18:16:59.916Z,8.27
2022-10-13T18:19:27.089Z,7.57
2022-10-13T18:22:00.932Z,6.78
2022-10-13T18:24:28.054Z,6.38
2022-10-13T18:26:55.341Z,6.75
2022-10-13T18:29:28.910Z,6.28
2022-10-13T18:31:59.182Z,7.03
2022-10-13T18:34:32.953Z,6.75
2022-10-13T18:37:00.174Z,7.32
2022-10-13T18:39:28.602Z,7.35
2022-10-13T18:42:03.040Z,7.40
2022-10-13T18:44:36.961Z,6.90
2022-10-13T18:47:10.969Z,6.90
2022-10-13T18:49:38.157Z,7.18
2022-10-13T18:52:11.989Z,7.03
2022-10-13T18:54:39.098Z,7.20
2022-10-13T18:57:13.180Z,7.40
2022-10-13T18:59:40.275Z,6.95
2022-10-13T19:02:07.464Z,7.15
2022-10-13T19:04:42.930Z,7.28
2022-10-13T19:07:10.095Z,6.97
2022-10-13T19:09:44.432Z,7.80
2022-10-13T19:12:11.937Z,6.65
2022-10-13T19:17:13.188Z,6.28
2022-10-13T19:19:41.442Z,6.70
2022-10-13T19:22:09.953Z,6.65
2022-10-13T19:24:43.968Z,6.45
2022-10-13T19:27:11.270Z,6.60
2022-10-13T19:29:38.401Z,7.28
2022-10-13T19:32:12.088Z,6.70
2022-10-13T19:34:39.375Z,7.47
2022-10-13T19:37:06.560Z,6.70
2022-10-13T19:39:41.119Z,6.50
2022-10-13T19:42:14.847Z,7.07
2022-10-13T19:44:49.248Z,6.60
2022-10-13T19:47:23.192Z,6.78
2022-10-13T19:49:56.961Z,6.28
2022-10-13T19:52:33.864Z,6.80
2022-10-13T19:55:07.940Z,6.60
2022-10-13T19:57:41.872Z,6.65
2022-10-13T20:00:09.181Z,5.70
2022-10-13T20:02:42.856Z,7.60
2022-10-13T20:05:10.064Z,6.75
2022-10-13T20:07:44.122Z,6.90
2022-10-13T20:10:11.194Z,6.50
2022-10-13T20:12:52.049Z,6.28
2022-10-13T20:15:25.960Z,7.40
2022-10-13T20:18:00.059Z,6.68
2022-10-13T20:20:33.863Z,6.78
2022-10-13T20:23:07.935Z,6.82
2022-10-13T20:25:44.884Z,7.45
2022-10-13T20:28:18.992Z,6.32
2022-10-13T20:30:46.108Z,7.68
2022-10-13T20:33:20.032Z,6.85
2022-10-13T20:35:47.126Z,7.40
2022-10-13T20:38:14.419Z,7.45
2022-10-13T20:40:48.032Z,7.28
2022-10-13T20:43:34.908Z,7.53
2022-10-13T20:46:09.970Z,7.72
2022-10-13T20:48:58.185Z,7.28
2022-10-13T20:51:31.968Z,8.18
2022-10-13T20:54:05.880Z,7.93
2022-10-13T20:56:55.039Z,8.75
2022-10-13T20:59:35.895Z,8.50
2022-10-13T21:02:10.054Z,9.10
2022-10-13T21:04:43.885Z,9.23
2022-10-13T21:07:18.356Z,10.65
2022-10-13T21:09:47.497Z,9.88
2022-10-13T21:12:17.339Z,10.30
2022-10-13T21:14:50.980Z,10.30
2022-10-13T21:17:24.886Z,10.35
2022-10-13T21:19:58.959Z,9.55
2022-10-13T21:22:32.896Z,9.70
2022-10-13T21:25:07.149Z,10.27
2022-10-13T21:27:34.324Z,10.40
2022-10-13T21:30:01.427Z,11.52
2022-10-13T21:32:36.968Z,11.45
2022-10-13T21:35:11.065Z,11.02
2022-10-13T21:37:39.099Z,9.95
2022-10-13T21:40:06.494Z,10.40
2022-10-13T21:42:41.038Z,11.77
2022-10-13T21:45:14.937Z,11.88
2022-10-13T21:47:49.172Z,11.20
2022-10-13T21:50:16.434Z,11.20
2022-10-13T21:52:43.541Z,10.52
2022-10-13T21:55:17.007Z,11.75
2022-10-13T21:57:44.205Z,11.48
2022-10-13T22:00:17.994Z,12.02
2022-10-13T22:02:45.120Z,11.57
2022-10-13T22:05:12.905Z,10.80
2022-10-13T22:07:46.989Z,12.13
2022-10-13T22:10:14.165Z,11.10
2022-10-13T22:12:48.033Z,12.70
2022-10-13T22:15:15.232Z,12.05
2022-10-13T22:17:42.321Z,12.48
2022-10-13T22:20:16.002Z,12.30
2022-10-13T22:22:43.231Z,12.82
2022-10-13T22:25:17.024Z,13.50
2022-10-13T22:27:44.186Z,14.25
2022-10-13T22:30:11.557Z,14.23
2022-10-13T22:32:45.068Z,14.27
2022-10-13T22:35:12.257Z,14.38
2022-10-13T22:37:46.008Z,15.40
2022-10-13T22:40:13.241Z,15.90
2022-10-13T22:42:47.085Z,16.25
2022-10-13T22:45:20.962Z,15.82
2022-10-13T22:47:58.033Z,15.73
2022-10-13T22:50:25.204Z,15.13
2022-10-13T22:52:52.469Z,15.52
2022-10-13T22:55:26.085Z,16.85
2022-10-13T22:57:53.287Z,16.48
2022-10-13T23:00:20.482Z,16.08
2022-10-13T23:02:54.108Z,16.65
2022-10-13T23:05:21.278Z,16.85
2022-10-13T23:07:55.149Z,16.88
2022-10-13T23:10:22.380Z,17.70
2022-10-13T23:12:49.512Z,17.45
2022-10-13T23:15:23.002Z,17.55
2022-10-13T23:17:50.221Z,19.77
2022-10-13T23:20:24.081Z,17.65
2022-10-13T23:22:51.239Z,20.15
2022-10-13T23:25:18.339Z,21.52
2022-10-13T23:27:52.129Z,19.83
2022-10-13T23:30:19.403Z,19.23
2022-10-13T23:32:53.080Z,20.48
2022-10-13T23:35:20.246Z,19.33
2022-10-13T23:37:47.350Z,19.88
2022-10-13T23:40:21.104Z,22.17
2022-10-13T23:42:48.303Z,23.42
2022-10-13T23:45:22.080Z,22.23
2022-10-13T23:47:56.024Z,24.55
2022-10-13T23:50:30.033Z,23.30
2022-10-13T23:52:57.193Z,22.73
2022-10-13T23:55:31.031Z,23.85
2022-10-13T23:57:58.203Z,21.05
